Lyndonville, VT (05851)

6:49 PM EST on December 02, 2016 (GMT -0500)
East Burke, VT | | Change Station

Elev 1332 ft 44.57 °N, 71.93 °W | Updated 28 minutes ago

Light Snow
Light Snow
32.0 °F
Feels Like 26 °F
N
6.3
Wind Variable Wind from NW
Gusts 7.8 mph

Today
High -- | Low -- °F
--% Chance of Precip.
Yesterday
High -- | Low -- °F
Precip. -- in
Pressure 29.68 in
Visibility 3.0 miles
Clouds Scattered Clouds 1000 ft
Mostly Cloudy 1400 ft
Overcast 2100 ft
Windchill 26 °F
Dew Point 32 °F
Humidity 98%
Rainfall 0.07 in
Snow Depth Not available.
7:06 AM 4:09 PM
Waxing Crescent, 11% visible
METAR KCDA 022335Z AUTO 25008KT 3SM -SN SCT010 BKN014 OVC021 00/00 A2968 RMK AO2 T00031001
Pressure 29.68 in
Visibility 3.0 miles
Clouds Scattered Clouds 1000 ft
Mostly Cloudy 1400 ft
Overcast 2100 ft
Windchill 26 °F
Dew Point 32 °F
Humidity 98%
Rainfall 0.07 in
Snow Depth Not available.
7:06 AM 4:09 PM
Waxing Crescent, 11% visible
METAR KCDA 022335Z AUTO 25008KT 3SM -SN SCT010 BKN014 OVC021 00/00 A2968 RMK AO2 T00031001

10-Day Weather Forecast

Almanac

Astronomy

Dec. 02, 2016 Rise Set
Actual Time
Civil Twilight
Nautical Twilight
Astronomical Twilight
Moon
Length of Visible Light
Length of Day
Tomorrow will be .
, % of the Moon is Illuminated

Today's Extremes

State Highs State Lows

Community

WunderPhotos

Upload Photos

1,955,369 photos uploaded!

WunderBlog® & News

Nearby

Air Quality

  Air Quality AQ Index Pollutant
Not available.

Snow Depth

Station Depth Elevation

Earthquake Activity

City Distance Mag. Time & Date
Minimum magnitude displayed is 2.5.

Coastal Water Temperatures

Place Temperature

Stations

Nearby Weather Stations

Station Location Temp. Windchill Dew Point Humidity Wind Precip. Elev Updated Type
                   

Watches & Warnings

There are currently no watches in effect.